sensor_id;sensor_type;location;lat;lon;timestamp;P1;durP1;ratioP1;P2;durP2;ratioP2
2848;SDS011;59355;52.416;13.412;2023-07-13T00:00:09;5.70;;;4.20;;
2848;SDS011;59355;52.416;13.412;2023-07-13T00:02:36;5.90;;;5.30;;
2848;SDS011;59355;52.416;13.412;2023-07-13T00:05:01;5.70;;;4.93;;
2848;SDS011;59355;52.416;13.412;2023-07-13T00:07:26;10.60;;;4.50;;
2848;SDS011;59355;52.416;13.412;2023-07-13T00:09:51;7.03;;;4.90;;
2848;SDS011;59355;52.416;13.412;2023-07-13T00:12:38;6.53;;;4.37;;
2848;SDS011;59355;52.416;13.412;2023-07-13T00:15:04;5.90;;;5.07;;
2848;SDS011;59355;52.416;13.412;2023-07-13T00:17:32;6.80;;;5.67;;
2848;SDS011;59355;52.416;13.412;2023-07-13T00:19:57;5.23;;;4.83;;
2848;SDS011;59355;52.416;13.412;2023-07-13T00:22:23;6.00;;;5.10;;
2848;SDS011;59355;52.416;13.412;2023-07-13T00:24:51;5.27;;;4.37;;
2848;SDS011;59355;52.416;13.412;2023-07-13T00:27:16;7.13;;;4.13;;
2848;SDS011;59355;52.416;13.412;2023-07-13T00:29:42;6.77;;;4.80;;
2848;SDS011;59355;52.416;13.412;2023-07-13T00:32:08;4.53;;;4.10;;
2848;SDS011;59355;52.416;13.412;2023-07-13T00:34:34;5.83;;;4.80;;
2848;SDS011;59355;52.416;13.412;2023-07-13T00:36:59;5.77;;;4.37;;
2848;SDS011;59355;52.416;13.412;2023-07-13T00:39:25;4.93;;;4.27;;
2848;SDS011;59355;52.416;13.412;2023-07-13T00:41:50;6.00;;;4.37;;
2848;SDS011;59355;52.416;13.412;2023-07-13T00:44:17;4.33;;;3.93;;
2848;SDS011;59355;52.416;13.412;2023-07-13T00:46:44;5.77;;;4.27;;
2848;SDS011;59355;52.416;13.412;2023-07-13T00:49:10;5.40;;;4.80;;
2848;SDS011;59355;52.416;13.412;2023-07-13T00:51:53;7.00;;;4.90;;
2848;SDS011;59355;52.416;13.412;2023-07-13T00:54:29;5.97;;;4.30;;
2848;SDS011;59355;52.416;13.412;2023-07-13T00:56:58;6.63;;;4.20;;
2848;SDS011;59355;52.416;13.412;2023-07-13T00:59:25;7.07;;;5.17;;
2848;SDS011;59355;52.416;13.412;2023-07-13T01:01:51;4.83;;;4.33;;
2848;SDS011;59355;52.416;13.412;2023-07-13T01:04:17;7.40;;;4.67;;
2848;SDS011;59355;52.416;13.412;2023-07-13T01:06:43;6.40;;;4.90;;
2848;SDS011;59355;52.416;13.412;2023-07-13T01:09:09;6.10;;;4.63;;
2848;SDS011;59355;52.416;13.412;2023-07-13T01:11:35;5.20;;;4.70;;
2848;SDS011;59355;52.416;13.412;2023-07-13T01:14:00;6.90;;;5.60;;
2848;SDS011;59355;52.416;13.412;2023-07-13T01:16:30;6.90;;;5.37;;
2848;SDS011;59355;52.416;13.412;2023-07-13T01:18:57;6.70;;;5.07;;
2848;SDS011;59355;52.416;13.412;2023-07-13T01:21:23;9.87;;;4.83;;
2848;SDS011;59355;52.416;13.412;2023-07-13T01:23:49;8.03;;;5.93;;
2848;SDS011;59355;52.416;13.412;2023-07-13T01:26:14;7.20;;;5.00;;
2848;SDS011;59355;52.416;13.412;2023-07-13T01:28:40;5.93;;;5.07;;
2848;SDS011;59355;52.416;13.412;2023-07-13T01:31:05;6.00;;;5.17;;
2848;SDS011;59355;52.416;13.412;2023-07-13T01:33:30;7.60;;;5.13;;
2848;SDS011;59355;52.416;13.412;2023-07-13T01:35:55;6.43;;;5.07;;
2848;SDS011;59355;52.416;13.412;2023-07-13T01:38:24;7.23;;;5.33;;
2848;SDS011;59355;52.416;13.412;2023-07-13T01:40:50;6.30;;;4.90;;
2848;SDS011;59355;52.416;13.412;2023-07-13T01:43:16;6.90;;;5.33;;
2848;SDS011;59355;52.416;13.412;2023-07-13T01:45:42;6.03;;;4.30;;
2848;SDS011;59355;52.416;13.412;2023-07-13T01:48:09;6.03;;;4.83;;
2848;SDS011;59355;52.416;13.412;2023-07-13T01:50:34;5.30;;;4.50;;
2848;SDS011;59355;52.416;13.412;2023-07-13T01:52:59;5.67;;;5.10;;
2848;SDS011;59355;52.416;13.412;2023-07-13T01:55:25;6.20;;;4.93;;
2848;SDS011;59355;52.416;13.412;2023-07-13T01:57:50;7.07;;;5.13;;
2848;SDS011;59355;52.416;13.412;2023-07-13T02:00:16;8.13;;;5.00;;
2848;SDS011;59355;52.416;13.412;2023-07-13T02:02:42;5.73;;;4.43;;
2848;SDS011;59355;52.416;13.412;2023-07-13T02:05:07;5.97;;;5.40;;
2848;SDS011;59355;52.416;13.412;2023-07-13T02:07:33;7.73;;;5.10;;
2848;SDS011;59355;52.416;13.412;2023-07-13T02:09:58;6.37;;;5.37;;
2848;SDS011;59355;52.416;13.412;2023-07-13T02:12:23;5.43;;;4.90;;
2848;SDS011;59355;52.416;13.412;2023-07-13T02:14:49;6.30;;;5.10;;
2848;SDS011;59355;52.416;13.412;2023-07-13T02:17:14;8.80;;;5.60;;
2848;SDS011;59355;52.416;13.412;2023-07-13T02:19:39;6.20;;;5.03;;
2848;SDS011;59355;52.416;13.412;2023-07-13T02:22:05;7.60;;;5.00;;
2848;SDS011;59355;52.416;13.412;2023-07-13T02:24:30;6.03;;;5.50;;
2848;SDS011;59355;52.416;13.412;2023-07-13T02:26:56;5.83;;;5.10;;
2848;SDS011;59355;52.416;13.412;2023-07-13T02:29:21;6.33;;;5.63;;
2848;SDS011;59355;52.416;13.412;2023-07-13T02:31:47;7.20;;;5.90;;
2848;SDS011;59355;52.416;13.412;2023-07-13T02:34:12;6.10;;;5.50;;
2848;SDS011;59355;52.416;13.412;2023-07-13T02:36:37;5.80;;;5.20;;
2848;SDS011;59355;52.416;13.412;2023-07-13T02:39:04;6.80;;;6.10;;
2848;SDS011;59355;52.416;13.412;2023-07-13T02:41:30;7.00;;;5.80;;
2848;SDS011;59355;52.416;13.412;2023-07-13T02:43:55;8.77;;;6.13;;
2848;SDS011;59355;52.416;13.412;2023-07-13T02:46:28;6.47;;;5.83;;
2848;SDS011;59355;52.416;13.412;2023-07-13T02:48:53;5.93;;;5.30;;
2848;SDS011;59355;52.416;13.412;2023-07-13T02:51:19;7.57;;;6.03;;
2848;SDS011;59355;52.416;13.412;2023-07-13T02:53:44;7.70;;;5.70;;
2848;SDS011;59355;52.416;13.412;2023-07-13T02:56:09;10.03;;;6.00;;
2848;SDS011;59355;52.416;13.412;2023-07-13T02:58:35;8.13;;;5.83;;
2848;SDS011;59355;52.416;13.412;2023-07-13T03:01:05;6.27;;;5.27;;
2848;SDS011;59355;52.416;13.412;2023-07-13T03:03:32;7.97;;;5.73;;
2848;SDS011;59355;52.416;13.412;2023-07-13T03:05:58;11.30;;;6.13;;
2848;SDS011;59355;52.416;13.412;2023-07-13T03:08:27;7.60;;;5.50;;
2848;SDS011;59355;52.416;13.412;2023-07-13T03:11:02;7.23;;;5.87;;
2848;SDS011;59355;52.416;13.412;2023-07-13T03:13:30;5.30;;;4.87;;
2848;SDS011;59355;52.416;13.412;2023-07-13T03:15:56;8.50;;;5.67;;
2848;SDS011;59355;52.416;13.412;2023-07-13T03:18:21;6.93;;;6.13;;
2848;SDS011;59355;52.416;13.412;2023-07-13T03:20:49;6.10;;;5.60;;
2848;SDS011;59355;52.416;13.412;2023-07-13T03:23:15;6.33;;;5.73;;
2848;SDS011;59355;52.416;13.412;2023-07-13T03:25:41;6.17;;;5.50;;
2848;SDS011;59355;52.416;13.412;2023-07-13T03:28:06;8.03;;;5.90;;
2848;SDS011;59355;52.416;13.412;2023-07-13T03:30:32;6.07;;;5.47;;
2848;SDS011;59355;52.416;13.412;2023-07-13T03:32:57;10.77;;;5.40;;
2848;SDS011;59355;52.416;13.412;2023-07-13T03:35:22;6.20;;;5.57;;
2848;SDS011;59355;52.416;13.412;2023-07-13T03:37:47;6.63;;;5.50;;
2848;SDS011;59355;52.416;13.412;2023-07-13T03:40:13;5.70;;;4.80;;
2848;SDS011;59355;52.416;13.412;2023-07-13T03:42:38;5.90;;;5.17;;
2848;SDS011;59355;52.416;13.412;2023-07-13T03:45:04;7.27;;;5.50;;
2848;SDS011;59355;52.416;13.412;2023-07-13T03:47:30;6.17;;;5.10;;
2848;SDS011;59355;52.416;13.412;2023-07-13T03:49:55;6.70;;;5.87;;
2848;SDS011;59355;52.416;13.412;2023-07-13T03:52:20;8.90;;;5.37;;
2848;SDS011;59355;52.416;13.412;2023-07-13T03:54:46;6.37;;;5.27;;
2848;SDS011;59355;52.416;13.412;2023-07-13T03:57:11;6.90;;;5.37;;
2848;SDS011;59355;52.416;13.412;2023-07-13T03:59:36;6.37;;;5.33;;
2848;SDS011;59355;52.416;13.412;2023-07-13T04:02:02;7.77;;;5.43;;
2848;SDS011;59355;52.416;13.412;2023-07-13T04:04:29;5.73;;;5.03;;
2848;SDS011;59355;52.416;13.412;2023-07-13T04:06:55;6.20;;;5.30;;
2848;SDS011;59355;52.416;13.412;2023-07-13T04:09:20;7.93;;;4.90;;
2848;SDS011;59355;52.416;13.412;2023-07-13T04:11:46;6.10;;;5.43;;
2848;SDS011;59355;52.416;13.412;2023-07-13T04:14:11;9.40;;;6.60;;
2848;SDS011;59355;52.416;13.412;2023-07-13T04:16:37;7.10;;;6.40;;
2848;SDS011;59355;52.416;13.412;2023-07-13T04:19:03;9.57;;;6.17;;
2848;SDS011;59355;52.416;13.412;2023-07-13T04:21:29;6.87;;;6.17;;
2848;SDS011;59355;52.416;13.412;2023-07-13T04:23:55;6.07;;;5.30;;
2848;SDS011;59355;52.416;13.412;2023-07-13T04:26:20;5.70;;;5.10;;
2848;SDS011;59355;52.416;13.412;2023-07-13T04:28:46;8.23;;;5.37;;
2848;SDS011;59355;52.416;13.412;2023-07-13T04:31:11;8.70;;;5.30;;
2848;SDS011;59355;52.416;13.412;2023-07-13T04:33:37;7.10;;;6.03;;
2848;SDS011;59355;52.416;13.412;2023-07-13T04:36:02;7.60;;;6.47;;
2848;SDS011;59355;52.416;13.412;2023-07-13T04:38:29;5.87;;;5.33;;
2848;SDS011;59355;52.416;13.412;2023-07-13T04:40:56;6.07;;;5.37;;
2848;SDS011;59355;52.416;13.412;2023-07-13T04:43:23;5.40;;;4.90;;
2848;SDS011;59355;52.416;13.412;2023-07-13T04:45:50;6.23;;;5.43;;
2848;SDS011;59355;52.416;13.412;2023-07-13T04:48:16;6.70;;;5.30;;
2848;SDS011;59355;52.416;13.412;2023-07-13T04:50:41;7.60;;;5.70;;
2848;SDS011;59355;52.416;13.412;2023-07-13T04:53:08;11.10;;;5.40;;
2848;SDS011;59355;52.416;13.412;2023-07-13T04:55:33;7.10;;;5.00;;
2848;SDS011;59355;52.416;13.412;2023-07-13T04:57:58;5.77;;;5.07;;
2848;SDS011;59355;52.416;13.412;2023-07-13T05:00:24;6.20;;;4.83;;
2848;SDS011;59355;52.416;13.412;2023-07-13T05:02:50;6.20;;;5.00;;
2848;SDS011;59355;52.416;13.412;2023-07-13T05:05:16;6.13;;;5.00;;
2848;SDS011;59355;52.416;13.412;2023-07-13T05:07:41;5.90;;;4.97;;
2848;SDS011;59355;52.416;13.412;2023-07-13T05:10:07;11.23;;;5.23;;
2848;SDS011;59355;52.416;13.412;2023-07-13T05:12:33;7.03;;;4.13;;
2848;SDS011;59355;52.416;13.412;2023-07-13T05:14:58;5.93;;;4.10;;
2848;SDS011;59355;52.416;13.412;2023-07-13T05:17:23;5.07;;;4.27;;
2848;SDS011;59355;52.416;13.412;2023-07-13T05:19:49;5.60;;;4.60;;
2848;SDS011;59355;52.416;13.412;2023-07-13T05:22:14;4.23;;;3.83;;
2848;SDS011;59355;52.416;13.412;2023-07-13T05:24:39;6.17;;;4.20;;
2848;SDS011;59355;52.416;13.412;2023-07-13T05:27:05;4.90;;;3.70;;
2848;SDS011;59355;52.416;13.412;2023-07-13T05:29:30;5.53;;;3.60;;
2848;SDS011;59355;52.416;13.412;2023-07-13T05:31:56;4.90;;;4.50;;
2848;SDS011;59355;52.416;13.412;2023-07-13T05:34:21;4.20;;;3.80;;
2848;SDS011;59355;52.416;13.412;2023-07-13T05:36:47;4.57;;;3.43;;
2848;SDS011;59355;52.416;13.412;2023-07-13T05:39:13;5.53;;;4.73;;
2848;SDS011;59355;52.416;13.412;2023-07-13T05:41:38;6.70;;;4.50;;
2848;SDS011;59355;52.416;13.412;2023-07-13T05:44:03;6.20;;;3.73;;
2848;SDS011;59355;52.416;13.412;2023-07-13T05:46:29;5.30;;;3.70;;
2848;SDS011;59355;52.416;13.412;2023-07-13T05:48:54;4.70;;;3.70;;
2848;SDS011;59355;52.416;13.412;2023-07-13T05:51:19;8.63;;;4.10;;
2848;SDS011;59355;52.416;13.412;2023-07-13T05:53:45;6.10;;;3.70;;
2848;SDS011;59355;52.416;13.412;2023-07-13T05:56:10;12.00;;;3.83;;
2848;SDS011;59355;52.416;13.412;2023-07-13T05:58:36;5.20;;;3.57;;
2848;SDS011;59355;52.416;13.412;2023-07-13T06:01:05;5.20;;;3.93;;
2848;SDS011;59355;52.416;13.412;2023-07-13T06:03:32;5.93;;;3.40;;
2848;SDS011;59355;52.416;13.412;2023-07-13T06:05:57;4.60;;;3.40;;
2848;SDS011;59355;52.416;13.412;2023-07-13T06:08:25;10.37;;;4.33;;
2848;SDS011;59355;52.416;13.412;2023-07-13T06:10:50;5.10;;;3.90;;
2848;SDS011;59355;52.416;13.412;2023-07-13T06:13:16;6.77;;;3.90;;
2848;SDS011;59355;52.416;13.412;2023-07-13T06:15:41;4.90;;;4.17;;
2848;SDS011;59355;52.416;13.412;2023-07-13T06:18:06;4.83;;;3.60;;
2848;SDS011;59355;52.416;13.412;2023-07-13T06:20:33;5.00;;;3.50;;
2848;SDS011;59355;52.416;13.412;2023-07-13T06:22:59;5.97;;;3.70;;
2848;SDS011;59355;52.416;13.412;2023-07-13T06:25:24;5.40;;;3.73;;
2848;SDS011;59355;52.416;13.412;2023-07-13T06:27:51;6.57;;;4.33;;
2848;SDS011;59355;52.416;13.412;2023-07-13T06:30:16;4.03;;;3.60;;
2848;SDS011;59355;52.416;13.412;2023-07-13T06:32:42;5.23;;;3.83;;
2848;SDS011;59355;52.416;13.412;2023-07-13T06:35:07;6.47;;;4.07;;
2848;SDS011;59355;52.416;13.412;2023-07-13T06:37:32;5.50;;;3.60;;
2848;SDS011;59355;52.416;13.412;2023-07-13T06:39:58;3.83;;;3.43;;
2848;SDS011;59355;52.416;13.412;2023-07-13T06:42:23;6.33;;;3.90;;
2848;SDS011;59355;52.416;13.412;2023-07-13T06:44:48;9.30;;;3.30;;
2848;SDS011;59355;52.416;13.412;2023-07-13T06:47:14;4.73;;;3.20;;
2848;SDS011;59355;52.416;13.412;2023-07-13T06:49:39;23.03;;;5.40;;
2848;SDS011;59355;52.416;13.412;2023-07-13T06:52:05;5.90;;;3.57;;
2848;SDS011;59355;52.416;13.412;2023-07-13T06:54:30;5.23;;;3.60;;
2848;SDS011;59355;52.416;13.412;2023-07-13T06:56:55;4.33;;;3.30;;
2848;SDS011;59355;52.416;13.412;2023-07-13T06:59:21;4.90;;;3.10;;
2848;SDS011;59355;52.416;13.412;2023-07-13T07:01:46;7.27;;;3.33;;
2848;SDS011;59355;52.416;13.412;2023-07-13T07:04:11;3.27;;;2.57;;
2848;SDS011;59355;52.416;13.412;2023-07-13T07:06:37;4.13;;;2.63;;
2848;SDS011;59355;52.416;13.412;2023-07-13T07:09:02;5.20;;;3.77;;
2848;SDS011;59355;52.416;13.412;2023-07-13T07:11:27;4.87;;;2.70;;
2848;SDS011;59355;52.416;13.412;2023-07-13T07:13:53;3.97;;;3.10;;
2848;SDS011;59355;52.416;13.412;2023-07-13T07:16:19;4.00;;;3.00;;
2848;SDS011;59355;52.416;13.412;2023-07-13T07:18:45;4.10;;;2.87;;
2848;SDS011;59355;52.416;13.412;2023-07-13T07:21:11;3.97;;;2.67;;
2848;SDS011;59355;52.416;13.412;2023-07-13T07:23:36;2.90;;;2.33;;
2848;SDS011;59355;52.416;13.412;2023-07-13T07:26:01;5.40;;;2.90;;
2848;SDS011;59355;52.416;13.412;2023-07-13T07:28:27;4.70;;;3.00;;
2848;SDS011;59355;52.416;13.412;2023-07-13T07:30:53;3.80;;;2.60;;
2848;SDS011;59355;52.416;13.412;2023-07-13T07:33:19;7.97;;;2.80;;
2848;SDS011;59355;52.416;13.412;2023-07-13T07:35:45;6.77;;;3.10;;
2848;SDS011;59355;52.416;13.412;2023-07-13T07:38:10;5.20;;;3.23;;
2848;SDS011;59355;52.416;13.412;2023-07-13T07:40:36;4.30;;;3.10;;
2848;SDS011;59355;52.416;13.412;2023-07-13T07:43:05;3.00;;;2.70;;
2848;SDS011;59355;52.416;13.412;2023-07-13T07:45:31;3.37;;;2.97;;
2848;SDS011;59355;52.416;13.412;2023-07-13T07:47:56;4.50;;;2.50;;
2848;SDS011;59355;52.416;13.412;2023-07-13T07:50:23;3.97;;;2.60;;
2848;SDS011;59355;52.416;13.412;2023-07-13T07:52:49;3.03;;;2.17;;
2848;SDS011;59355;52.416;13.412;2023-07-13T07:55:15;2.97;;;2.67;;
2848;SDS011;59355;52.416;13.412;2023-07-13T07:57:40;3.33;;;2.90;;
2848;SDS011;59355;52.416;13.412;2023-07-13T08:00:05;4.67;;;2.60;;
2848;SDS011;59355;52.416;13.412;2023-07-13T08:02:31;4.97;;;2.90;;
2848;SDS011;59355;52.416;13.412;2023-07-13T08:04:56;6.37;;;3.00;;
2848;SDS011;59355;52.416;13.412;2023-07-13T08:07:22;4.10;;;2.63;;
2848;SDS011;59355;52.416;13.412;2023-07-13T08:09:47;6.17;;;3.20;;
2848;SDS011;59355;52.416;13.412;2023-07-13T08:12:17;6.33;;;3.10;;
2848;SDS011;59355;52.416;13.412;2023-07-13T08:14:42;7.23;;;3.07;;
2848;SDS011;59355;52.416;13.412;2023-07-13T08:17:07;5.00;;;2.70;;
2848;SDS011;59355;52.416;13.412;2023-07-13T08:19:33;4.10;;;2.90;;
2848;SDS011;59355;52.416;13.412;2023-07-13T08:21:58;3.40;;;2.60;;
2848;SDS011;59355;52.416;13.412;2023-07-13T08:24:23;5.10;;;2.83;;
2848;SDS011;59355;52.416;13.412;2023-07-13T08:26:50;6.20;;;2.43;;
2848;SDS011;59355;52.416;13.412;2023-07-13T08:29:16;3.60;;;2.27;;
2848;SDS011;59355;52.416;13.412;2023-07-13T08:31:41;4.00;;;2.47;;
2848;SDS011;59355;52.416;13.412;2023-07-13T08:34:06;3.70;;;2.73;;
2848;SDS011;59355;52.416;13.412;2023-07-13T08:36:32;4.60;;;3.07;;
2848;SDS011;59355;52.416;13.412;2023-07-13T08:38:57;4.60;;;2.60;;
2848;SDS011;59355;52.416;13.412;2023-07-13T08:41:22;3.90;;;2.90;;
2848;SDS011;59355;52.416;13.412;2023-07-13T08:43:49;3.57;;;2.70;;
2848;SDS011;59355;52.416;13.412;2023-07-13T08:49:01;4.60;;;2.50;;
2848;SDS011;59355;52.416;13.412;2023-07-13T08:51:33;6.73;;;4.03;;
2848;SDS011;59355;52.416;13.412;2023-07-13T08:54:05;5.10;;;2.83;;
2848;SDS011;59355;52.416;13.412;2023-07-13T08:56:36;3.13;;;2.60;;
2848;SDS011;59355;52.416;13.412;2023-07-13T08:59:06;3.37;;;2.67;;
2848;SDS011;59355;52.416;13.412;2023-07-13T09:01:54;7.93;;;3.23;;
2848;SDS011;59355;52.416;13.412;2023-07-13T09:04:28;3.93;;;2.40;;
2848;SDS011;59355;52.416;13.412;2023-07-13T09:07:01;4.03;;;2.73;;
2848;SDS011;59355;52.416;13.412;2023-07-13T09:12:14;3.13;;;2.40;;
2848;SDS011;59355;52.416;13.412;2023-07-13T09:14:45;5.17;;;2.83;;
2848;SDS011;59355;52.416;13.412;2023-07-13T09:17:15;3.13;;;2.50;;
2848;SDS011;59355;52.416;13.412;2023-07-13T09:19:44;4.40;;;2.50;;
2848;SDS011;59355;52.416;13.412;2023-07-13T09:22:13;3.00;;;2.50;;
2848;SDS011;59355;52.416;13.412;2023-07-13T09:27:21;3.97;;;2.50;;
2848;SDS011;59355;52.416;13.412;2023-07-13T09:29:51;5.67;;;3.07;;
2848;SDS011;59355;52.416;13.412;2023-07-13T09:32:21;6.17;;;3.03;;
2848;SDS011;59355;52.416;13.412;2023-07-13T09:34:52;3.43;;;2.80;;
2848;SDS011;59355;52.416;13.412;2023-07-13T09:37:19;3.90;;;2.90;;
2848;SDS011;59355;52.416;13.412;2023-07-13T09:39:46;6.80;;;2.60;;
2848;SDS011;59355;52.416;13.412;2023-07-13T09:42:20;5.10;;;2.90;;
2848;SDS011;59355;52.416;13.412;2023-07-13T09:47:37;4.57;;;2.80;;
2848;SDS011;59355;52.416;13.412;2023-07-13T09:49:59;3.43;;;2.77;;
2848;SDS011;59355;52.416;13.412;2023-07-13T09:52:26;4.90;;;3.10;;
2848;SDS011;59355;52.416;13.412;2023-07-13T09:54:53;7.40;;;2.70;;
2848;SDS011;59355;52.416;13.412;2023-07-13T09:57:25;3.77;;;3.13;;
2848;SDS011;59355;52.416;13.412;2023-07-13T09:59:52;6.63;;;3.30;;
2848;SDS011;59355;52.416;13.412;2023-07-13T10:02:29;5.60;;;3.90;;
2848;SDS011;59355;52.416;13.412;2023-07-13T10:05:00;4.73;;;3.33;;
2848;SDS011;59355;52.416;13.412;2023-07-13T10:07:28;5.80;;;3.93;;
2848;SDS011;59355;52.416;13.412;2023-07-13T10:09:54;7.93;;;4.23;;
2848;SDS011;59355;52.416;13.412;2023-07-13T10:12:20;5.37;;;4.80;;
2848;SDS011;59355;52.416;13.412;2023-07-13T10:14:45;5.97;;;4.27;;
2848;SDS011;59355;52.416;13.412;2023-07-13T10:17:12;4.93;;;4.10;;
2848;SDS011;59355;52.416;13.412;2023-07-13T10:19:38;4.43;;;4.03;;
2848;SDS011;59355;52.416;13.412;2023-07-13T10:22:12;5.40;;;4.27;;
2848;SDS011;59355;52.416;13.412;2023-07-13T10:24:43;5.57;;;4.10;;
2848;SDS011;59355;52.416;13.412;2023-07-13T10:27:15;5.10;;;3.80;;
2848;SDS011;59355;52.416;13.412;2023-07-13T10:29:43;9.43;;;4.23;;
2848;SDS011;59355;52.416;13.412;2023-07-13T10:32:11;5.37;;;4.13;;
2848;SDS011;59355;52.416;13.412;2023-07-13T10:34:37;7.27;;;3.90;;
2848;SDS011;59355;52.416;13.412;2023-07-13T10:37:02;6.10;;;3.70;;
2848;SDS011;59355;52.416;13.412;2023-07-13T10:39:30;5.60;;;4.40;;
2848;SDS011;59355;52.416;13.412;2023-07-13T10:42:00;4.33;;;3.73;;
2848;SDS011;59355;52.416;13.412;2023-07-13T10:44:29;6.50;;;4.10;;
2848;SDS011;59355;52.416;13.412;2023-07-13T10:46:57;4.87;;;3.43;;
2848;SDS011;59355;52.416;13.412;2023-07-13T10:49:28;9.57;;;4.13;;
2848;SDS011;59355;52.416;13.412;2023-07-13T10:51:55;4.60;;;3.57;;
2848;SDS011;59355;52.416;13.412;2023-07-13T10:54:22;6.23;;;4.27;;
2848;SDS011;59355;52.416;13.412;2023-07-13T10:57:07;6.03;;;4.07;;
2848;SDS011;59355;52.416;13.412;2023-07-13T10:59:34;4.53;;;3.80;;
2848;SDS011;59355;52.416;13.412;2023-07-13T11:04:29;5.37;;;3.97;;
2848;SDS011;59355;52.416;13.412;2023-07-13T11:07:10;4.83;;;3.93;;
2848;SDS011;59355;52.416;13.412;2023-07-13T11:09:42;5.90;;;3.90;;
2848;SDS011;59355;52.416;13.412;2023-07-13T11:19:56;4.73;;;3.77;;
2848;SDS011;59355;52.416;13.412;2023-07-13T11:22:43;5.63;;;3.73;;
2848;SDS011;59355;52.416;13.412;2023-07-13T11:27:45;13.13;;;4.57;;
2848;SDS011;59355;52.416;13.412;2023-07-13T11:32:44;6.67;;;2.80;;
2848;SDS011;59355;52.416;13.412;2023-07-13T11:35:13;5.53;;;3.20;;
2848;SDS011;59355;52.416;13.412;2023-07-13T11:37:44;7.17;;;2.93;;
2848;SDS011;59355;52.416;13.412;2023-07-13T11:40:14;5.17;;;3.10;;
2848;SDS011;59355;52.416;13.412;2023-07-13T11:42:39;7.57;;;2.80;;
2848;SDS011;59355;52.416;13.412;2023-07-13T11:45:14;5.13;;;3.60;;
2848;SDS011;59355;52.416;13.412;2023-07-13T11:47:44;5.17;;;3.57;;
2848;SDS011;59355;52.416;13.412;2023-07-13T11:50:17;5.17;;;2.87;;
2848;SDS011;59355;52.416;13.412;2023-07-13T11:52:44;4.07;;;3.67;;
2848;SDS011;59355;52.416;13.412;2023-07-13T11:55:13;5.77;;;3.70;;
2848;SDS011;59355;52.416;13.412;2023-07-13T11:57:42;4.50;;;3.80;;
2848;SDS011;59355;52.416;13.412;2023-07-13T12:00:13;4.63;;;3.50;;
2848;SDS011;59355;52.416;13.412;2023-07-13T12:02:42;7.50;;;4.17;;
2848;SDS011;59355;52.416;13.412;2023-07-13T12:05:15;5.00;;;3.60;;
2848;SDS011;59355;52.416;13.412;2023-07-13T12:07:42;4.40;;;3.30;;
2848;SDS011;59355;52.416;13.412;2023-07-13T12:12:33;5.70;;;3.23;;
2848;SDS011;59355;52.416;13.412;2023-07-13T12:14:58;6.07;;;3.53;;
2848;SDS011;59355;52.416;13.412;2023-07-13T12:17:24;4.53;;;3.50;;
2848;SDS011;59355;52.416;13.412;2023-07-13T12:19:51;5.97;;;3.27;;
2848;SDS011;59355;52.416;13.412;2023-07-13T12:22:18;4.03;;;3.57;;
2848;SDS011;59355;52.416;13.412;2023-07-13T12:24:45;6.07;;;3.47;;
2848;SDS011;59355;52.416;13.412;2023-07-13T12:27:22;7.30;;;3.40;;
2848;SDS011;59355;52.416;13.412;2023-07-13T12:29:50;5.43;;;3.47;;
2848;SDS011;59355;52.416;13.412;2023-07-13T12:32:26;11.30;;;4.80;;
2848;SDS011;59355;52.416;13.412;2023-07-13T12:34:53;5.83;;;3.20;;
2848;SDS011;59355;52.416;13.412;2023-07-13T12:37:41;3.57;;;2.67;;
2848;SDS011;59355;52.416;13.412;2023-07-13T12:40:12;5.13;;;2.90;;
2848;SDS011;59355;52.416;13.412;2023-07-13T12:42:39;6.07;;;3.17;;
2848;SDS011;59355;52.416;13.412;2023-07-13T12:45:15;2.93;;;2.23;;
2848;SDS011;59355;52.416;13.412;2023-07-13T12:47:52;5.60;;;2.63;;
2848;SDS011;59355;52.416;13.412;2023-07-13T12:50:20;4.13;;;2.77;;
2848;SDS011;59355;52.416;13.412;2023-07-13T12:52:51;3.87;;;2.70;;
2848;SDS011;59355;52.416;13.412;2023-07-13T12:55:19;5.33;;;2.77;;
2848;SDS011;59355;52.416;13.412;2023-07-13T12:57:50;3.10;;;2.73;;
2848;SDS011;59355;52.416;13.412;2023-07-13T13:00:27;5.23;;;3.37;;
2848;SDS011;59355;52.416;13.412;2023-07-13T13:02:55;5.50;;;3.37;;
2848;SDS011;59355;52.416;13.412;2023-07-13T13:05:21;6.13;;;3.40;;
2848;SDS011;59355;52.416;13.412;2023-07-13T13:07:48;3.70;;;3.00;;
2848;SDS011;59355;52.416;13.412;2023-07-13T13:10:14;6.47;;;3.20;;
2848;SDS011;59355;52.416;13.412;2023-07-13T13:12:40;6.03;;;3.27;;
2848;SDS011;59355;52.416;13.412;2023-07-13T13:15:08;4.50;;;2.40;;
2848;SDS011;59355;52.416;13.412;2023-07-13T13:17:35;4.80;;;3.00;;
2848;SDS011;59355;52.416;13.412;2023-07-13T13:20:01;4.30;;;2.60;;
2848;SDS011;59355;52.416;13.412;2023-07-13T13:22:26;4.27;;;2.73;;
2848;SDS011;59355;52.416;13.412;2023-07-13T13:24:52;4.00;;;2.50;;
2848;SDS011;59355;52.416;13.412;2023-07-13T13:27:18;6.10;;;2.70;;
2848;SDS011;59355;52.416;13.412;2023-07-13T13:29:44;4.30;;;2.73;;
2848;SDS011;59355;52.416;13.412;2023-07-13T13:32:13;4.13;;;2.83;;
2848;SDS011;59355;52.416;13.412;2023-07-13T13:34:39;6.93;;;2.90;;
2848;SDS011;59355;52.416;13.412;2023-07-13T13:37:10;3.87;;;2.40;;
2848;SDS011;59355;52.416;13.412;2023-07-13T13:39:43;6.33;;;3.00;;
2848;SDS011;59355;52.416;13.412;2023-07-13T13:42:09;5.13;;;2.77;;
2848;SDS011;59355;52.416;13.412;2023-07-13T13:44:34;7.60;;;2.20;;
2848;SDS011;59355;52.416;13.412;2023-07-13T13:46:59;5.00;;;2.60;;
2848;SDS011;59355;52.416;13.412;2023-07-13T13:49:25;4.17;;;2.27;;
2848;SDS011;59355;52.416;13.412;2023-07-13T13:51:52;9.70;;;3.03;;
2848;SDS011;59355;52.416;13.412;2023-07-13T13:54:18;3.23;;;2.10;;
2848;SDS011;59355;52.416;13.412;2023-07-13T13:56:45;5.37;;;2.93;;
2848;SDS011;59355;52.416;13.412;2023-07-13T13:59:11;3.13;;;2.30;;
2848;SDS011;59355;52.416;13.412;2023-07-13T14:01:37;6.17;;;2.27;;
2848;SDS011;59355;52.416;13.412;2023-07-13T14:04:03;4.87;;;2.30;;
2848;SDS011;59355;52.416;13.412;2023-07-13T14:06:30;5.23;;;3.27;;
2848;SDS011;59355;52.416;13.412;2023-07-13T14:08:56;6.93;;;2.30;;
2848;SDS011;59355;52.416;13.412;2023-07-13T14:11:21;5.97;;;2.67;;
2848;SDS011;59355;52.416;13.412;2023-07-13T14:13:52;3.90;;;2.80;;
2848;SDS011;59355;52.416;13.412;2023-07-13T14:16:23;5.53;;;2.50;;
2848;SDS011;59355;52.416;13.412;2023-07-13T14:18:52;4.90;;;2.30;;
2848;SDS011;59355;52.416;13.412;2023-07-13T14:21:19;5.30;;;2.67;;
2848;SDS011;59355;52.416;13.412;2023-07-13T14:23:46;3.93;;;2.33;;
2848;SDS011;59355;52.416;13.412;2023-07-13T14:26:17;3.23;;;2.10;;
2848;SDS011;59355;52.416;13.412;2023-07-13T14:28:48;7.13;;;3.07;;
2848;SDS011;59355;52.416;13.412;2023-07-13T14:31:15;5.93;;;2.30;;
2848;SDS011;59355;52.416;13.412;2023-07-13T14:33:41;3.37;;;2.53;;
2848;SDS011;59355;52.416;13.412;2023-07-13T14:36:20;4.03;;;2.50;;
2848;SDS011;59355;52.416;13.412;2023-07-13T14:38:48;4.27;;;2.10;;
2848;SDS011;59355;52.416;13.412;2023-07-13T14:41:14;4.73;;;2.10;;
2848;SDS011;59355;52.416;13.412;2023-07-13T14:43:39;4.53;;;2.10;;
2848;SDS011;59355;52.416;13.412;2023-07-13T14:46:04;5.60;;;2.00;;
2848;SDS011;59355;52.416;13.412;2023-07-13T14:48:30;4.30;;;2.20;;
2848;SDS011;59355;52.416;13.412;2023-07-13T14:50:57;3.33;;;2.10;;
2848;SDS011;59355;52.416;13.412;2023-07-13T14:53:24;4.50;;;1.90;;
2848;SDS011;59355;52.416;13.412;2023-07-13T14:55:55;5.00;;;2.07;;
2848;SDS011;59355;52.416;13.412;2023-07-13T14:58:20;2.87;;;2.17;;
2848;SDS011;59355;52.416;13.412;2023-07-13T15:00:46;3.70;;;1.97;;
2848;SDS011;59355;52.416;13.412;2023-07-13T15:03:17;6.53;;;2.23;;
2848;SDS011;59355;52.416;13.412;2023-07-13T15:05:46;3.90;;;2.20;;
2848;SDS011;59355;52.416;13.412;2023-07-13T15:08:11;5.73;;;2.13;;
2848;SDS011;59355;52.416;13.412;2023-07-13T15:10:37;3.63;;;1.70;;
2848;SDS011;59355;52.416;13.412;2023-07-13T15:15:46;4.53;;;2.07;;
2848;SDS011;59355;52.416;13.412;2023-07-13T15:18:14;4.77;;;2.17;;